createdAt,value
2023-01-25T00:01:15.338Z,101949.77
2023-01-25T00:03:43.557Z,101951.73
2023-01-25T00:06:11.832Z,101953.53
2023-01-25T00:08:40.167Z,101952.85
2023-01-25T00:11:08.159Z,101950.98
2023-01-25T00:13:37.493Z,101959.47
2023-01-25T00:16:05.702Z,101952.91
2023-01-25T00:18:34.599Z,101952.38
2023-01-25T00:21:17.106Z,101950.91
2023-01-25T00:23:45.336Z,101943.63
2023-01-25T00:26:13.558Z,101944.64
2023-01-25T00:28:41.851Z,101947.34
2023-01-25T00:31:11.989Z,101947.41
2023-01-25T00:33:48.770Z,101940.91
2023-01-25T00:36:38.415Z,101938.02
2023-01-25T00:39:06.874Z,101932.89
2023-01-25T00:41:34.885Z,101930.31
2023-01-25T00:44:03.197Z,101929.44
2023-01-25T00:46:31.357Z,101923.64
2023-01-25T00:48:59.568Z,101920.58
2023-01-25T00:51:27.734Z,101922.05
2023-01-25T00:53:56.100Z,101920.24
2023-01-25T00:56:27.249Z,101917.55
2023-01-25T00:58:55.491Z,101916.58
2023-01-25T01:01:23.492Z,101912.92
2023-01-25T01:03:53.016Z,101915.05
2023-01-25T01:06:21.523Z,101911.46
2023-01-25T01:08:51.812Z,101905.36
2023-01-25T01:11:22.617Z,101906.89
2023-01-25T01:13:50.644Z,101902.31
2023-01-25T01:16:18.895Z,101901.93
2023-01-25T01:18:47.317Z,101903.03
2023-01-25T01:21:15.649Z,101902.39
2023-01-25T01:23:43.743Z,101899.41
2023-01-25T01:26:13.574Z,101902.08
2023-01-25T01:28:41.637Z,101898.52
2023-01-25T01:31:15.304Z,101899.16
2023-01-25T01:33:51.537Z,101897.92
2023-01-25T01:36:20.555Z,101895.31
2023-01-25T01:38:48.556Z,101893.19
2023-01-25T01:41:17.428Z,101892.03
2023-01-25T01:43:45.527Z,101891.23
2023-01-25T01:46:29.623Z,101889.82
2023-01-25T01:49:01.194Z,101890.94
2023-01-25T01:51:45.812Z,101889.13
2023-01-25T01:54:29.405Z,101884.77
2023-01-25T01:57:00.661Z,101877.31
2023-01-25T01:59:39.955Z,101878.89
2023-01-25T02:02:07.958Z,101877.91
2023-01-25T02:04:36.356Z,101878.73
2023-01-25T02:07:12.123Z,101873.54
2023-01-25T02:09:40.204Z,101871.36
2023-01-25T02:12:08.394Z,101872.61
2023-01-25T02:14:36.856Z,101871.86
2023-01-25T02:17:04.805Z,101873.84
2023-01-25T02:19:48.374Z,101870.91
2023-01-25T02:22:16.701Z,101874.98
2023-01-25T02:24:48.762Z,101873.08
2023-01-25T02:27:17.115Z,101877.20
2023-01-25T02:29:45.755Z,101876.58
2023-01-25T02:32:14.079Z,101872.93
2023-01-25T02:34:42.309Z,101869.25
2023-01-25T02:37:14.102Z,101870.83
2023-01-25T02:39:42.504Z,101867.40
2023-01-25T02:42:13.192Z,101867.93
2023-01-25T02:44:41.688Z,101871.55
2023-01-25T02:47:09.805Z,101868.82
2023-01-25T02:49:40.653Z,101869.00
2023-01-25T02:52:09.350Z,101869.23
2023-01-25T02:54:37.636Z,101866.02
2023-01-25T02:57:08.341Z,101865.46
2023-01-25T02:59:43.707Z,101866.77
2023-01-25T03:02:14.140Z,101868.63
2023-01-25T03:04:42.488Z,101862.84
2023-01-25T03:07:10.605Z,101864.45
2023-01-25T03:09:38.718Z,101861.41
2023-01-25T03:12:07.253Z,101861.98
2023-01-25T03:14:36.875Z,101864.50
2023-01-25T03:17:04.935Z,101865.61
2023-01-25T03:19:33.317Z,101867.34
2023-01-25T03:22:01.291Z,101866.94
2023-01-25T03:24:29.782Z,101866.33
2023-01-25T03:27:18.584Z,101865.98
2023-01-25T03:29:53.579Z,101861.63
2023-01-25T03:32:23.806Z,101863.20
2023-01-25T03:34:51.923Z,101861.71
2023-01-25T03:37:20.607Z,101866.25
2023-01-25T03:39:49.013Z,101871.41
2023-01-25T03:42:21.543Z,101869.61
2023-01-25T03:44:52.579Z,101874.91
2023-01-25T03:47:20.813Z,101875.02
2023-01-25T03:49:50.029Z,101874.54
2023-01-25T03:52:20.009Z,101872.05
2023-01-25T03:54:51.495Z,101876.98
2023-01-25T03:57:20.707Z,101876.13
2023-01-25T03:59:56.121Z,101881.66
2023-01-25T04:02:24.170Z,101878.81
2023-01-25T04:04:55.684Z,101880.61
2023-01-25T04:07:23.862Z,101876.20
2023-01-25T04:09:52.223Z,101879.69
2023-01-25T04:12:20.600Z,101884.34
2023-01-25T04:14:49.054Z,101880.87
2023-01-25T04:17:22.088Z,101881.38
2023-01-25T04:20:08.970Z,101882.51
2023-01-25T04:22:40.345Z,101886.21
2023-01-25T04:25:10.176Z,101881.55
2023-01-25T04:27:42.631Z,101885.75
2023-01-25T04:30:13.931Z,101885.45
2023-01-25T04:32:42.653Z,101881.95
2023-01-25T04:35:22.925Z,101884.70
2023-01-25T04:37:55.916Z,101889.39
2023-01-25T04:40:26.198Z,101887.69
2023-01-25T04:42:54.206Z,101889.48
2023-01-25T04:45:23.687Z,101884.80
2023-01-25T04:48:04.700Z,101884.43
2023-01-25T04:50:35.091Z,101884.01
2023-01-25T04:53:03.809Z,101883.11
2023-01-25T04:55:35.408Z,101883.48
2023-01-25T04:58:04.015Z,101879.20
2023-01-25T05:00:32.922Z,101882.60
2023-01-25T05:03:06.012Z,101892.24
2023-01-25T05:05:35.092Z,101892.98
2023-01-25T05:08:06.151Z,101894.16
2023-01-25T05:10:35.259Z,101897.67
2023-01-25T05:13:36.528Z,101900.04
2023-01-25T05:16:12.992Z,101902.11
2023-01-25T05:18:48.454Z,101899.79
2023-01-25T05:21:39.888Z,101901.73
2023-01-25T05:24:08.799Z,101901.20
2023-01-25T05:26:57.028Z,101906.55
2023-01-25T05:29:25.141Z,101905.76
2023-01-25T05:32:08.442Z,101907.75
2023-01-25T05:34:37.304Z,101905.89
2023-01-25T05:37:06.765Z,101911.52
2023-01-25T05:39:36.558Z,101911.48
2023-01-25T05:42:10.578Z,101914.08
2023-01-25T05:44:39.055Z,101913.82
2023-01-25T05:47:08.867Z,101911.13
2023-01-25T05:49:37.136Z,101908.45
2023-01-25T05:52:05.948Z,101910.28
2023-01-25T05:54:34.929Z,101908.27
2023-01-25T05:57:05.456Z,101907.73
2023-01-25T05:59:35.061Z,101909.63
2023-01-25T06:02:03.439Z,101912.17
2023-01-25T06:04:32.228Z,101910.35
2023-01-25T06:07:00.436Z,101909.24
2023-01-25T08:15:41.393Z,101890.77
2023-01-25T08:18:08.262Z,101894.30
2023-01-25T08:20:35.591Z,101888.01
2023-01-25T08:23:02.583Z,101885.86
2023-01-25T08:25:29.506Z,101890.80
2023-01-25T08:27:57.238Z,101892.33
2023-01-25T08:30:24.623Z,101892.97
2023-01-25T08:32:51.270Z,101895.55
2023-01-25T08:35:19.240Z,101892.55
2023-01-25T08:37:46.283Z,101894.27
2023-01-25T08:40:15.924Z,101889.31
2023-01-25T08:42:45.305Z,101886.85
2023-01-25T08:45:12.347Z,101886.14
2023-01-25T08:47:39.155Z,101884.64
2023-01-25T08:50:06.681Z,101881.70
2023-01-25T08:52:33.955Z,101882.85
2023-01-25T08:55:01.001Z,101883.94
2023-01-25T08:57:27.746Z,101886.36
2023-01-25T08:59:54.448Z,101886.42
2023-01-25T09:02:21.224Z,101887.31
2023-01-25T09:04:48.168Z,101886.07
2023-01-25T09:07:15.479Z,101884.03
2023-01-25T09:09:42.262Z,101882.48
2023-01-25T09:12:09.190Z,101882.29
2023-01-25T09:14:39.633Z,101885.55
2023-01-25T09:17:08.838Z,101888.84
2023-01-25T09:19:35.387Z,101886.07
2023-01-25T09:22:03.139Z,101886.73
2023-01-25T09:24:30.102Z,101882.89
2023-01-25T09:38:24.705Z,101878.66
2023-01-25T09:41:08.861Z,101875.06
2023-01-25T09:44:07.333Z,101876.07
2023-01-25T09:46:49.001Z,101872.15
2023-01-25T09:49:35.697Z,101871.56
2023-01-25T09:52:15.945Z,101870.84
2023-01-25T09:54:47.222Z,101865.77
2023-01-25T09:57:25.096Z,101857.52
2023-01-25T09:59:53.163Z,101852.61
2023-01-25T10:02:34.732Z,101847.93
2023-01-25T10:05:14.766Z,101846.77
2023-01-25T10:08:14.819Z,101844.23
2023-01-25T10:10:43.988Z,101839.37
2023-01-25T10:13:13.363Z,101835.36
2023-01-25T10:15:45.129Z,101834.64
2023-01-25T10:18:31.455Z,101831.68
2023-01-25T10:21:04.813Z,101831.90
2023-01-25T10:24:05.065Z,101827.63
2023-01-25T10:26:34.767Z,101824.89
2023-01-25T10:29:04.593Z,101825.17
2023-01-25T10:31:34.741Z,101825.70
2023-01-25T10:34:03.446Z,101819.89
2023-01-25T10:36:31.818Z,101813.98
2023-01-25T10:39:01.698Z,101811.56
2023-01-25T10:41:36.245Z,101809.63
2023-01-25T10:44:24.554Z,101806.52
2023-01-25T10:47:11.956Z,101810.13
2023-01-25T10:49:41.432Z,101808.25
2023-01-25T10:52:15.136Z,101805.17
2023-01-25T10:54:43.524Z,101803.55
2023-01-25T10:57:17.246Z,101799.98
2023-01-25T10:59:46.647Z,101801.33
2023-01-25T11:02:41.813Z,101794.87
2023-01-25T11:05:18.231Z,101796.05
2023-01-25T11:07:46.938Z,101794.70
2023-01-25T11:10:35.127Z,101791.00
2023-01-25T11:13:15.585Z,101788.27
2023-01-25T11:15:44.957Z,101785.52
2023-01-25T11:18:31.605Z,101784.51
2023-01-25T11:21:23.363Z,101785.69
2023-01-25T11:24:01.085Z,101781.05
2023-01-25T11:26:29.482Z,101779.00
2023-01-25T11:29:13.237Z,101776.54
2023-01-25T11:31:42.650Z,101771.85
2023-01-25T11:34:12.443Z,101770.95
2023-01-25T11:37:06.619Z,101767.63
2023-01-25T11:39:41.003Z,101765.82
2023-01-25T11:42:12.677Z,101766.09
2023-01-25T11:45:18.477Z,101763.79
2023-01-25T11:48:02.299Z,101755.56
2023-01-25T11:50:39.088Z,101755.11
2023-01-25T11:53:29.137Z,101754.23
2023-01-25T11:56:11.459Z,101754.48
2023-01-25T11:58:49.131Z,101753.02
2023-01-25T12:01:45.226Z,101750.92
2023-01-25T12:04:34.895Z,101747.77
2023-01-25T14:20:45.549Z,101685.68
2023-01-25T14:23:30.261Z,101684.16
2023-01-25T14:25:58.517Z,101684.25
2023-01-25T14:28:26.153Z,101681.55
2023-01-25T14:30:54.680Z,101679.91
2023-01-25T14:33:27.007Z,101678.55
2023-01-25T14:35:57.458Z,101678.91
2023-01-25T14:38:26.964Z,101677.36
2023-01-25T14:41:07.270Z,101676.45
2023-01-25T14:43:35.591Z,101679.27
2023-01-25T14:46:37.204Z,101676.88
2023-01-25T14:49:24.850Z,101673.11
2023-01-25T14:51:56.745Z,101672.56
2023-01-25T14:54:25.299Z,101670.01
2023-01-25T14:56:53.305Z,101668.87
2023-01-25T14:59:41.198Z,101666.63
2023-01-25T15:02:27.989Z,101657.81
2023-01-25T15:05:04.868Z,101655.33
2023-01-25T15:07:48.020Z,101653.96
2023-01-25T15:10:22.885Z,101660.67
2023-01-25T15:13:04.152Z,101664.14
2023-01-25T15:15:52.385Z,101662.11
2023-01-25T15:18:48.010Z,101664.36
2023-01-25T15:21:25.180Z,101660.39
2023-01-25T15:23:52.611Z,101665.23
2023-01-25T15:26:29.024Z,101663.15
2023-01-25T15:29:00.752Z,101661.52
2023-01-25T15:31:29.133Z,101657.08
2023-01-25T15:33:58.731Z,101656.72
2023-01-25T15:36:25.874Z,101657.19
2023-01-25T15:38:52.732Z,101663.16
2023-01-25T15:41:22.745Z,101662.45
2023-01-25T15:56:23.661Z,101665.42
2023-01-25T15:58:59.833Z,101661.20
2023-01-25T16:01:29.955Z,101668.78
2023-01-25T16:04:14.259Z,101667.84
2023-01-25T16:06:42.991Z,101665.77
2023-01-25T16:09:27.245Z,101667.17
2023-01-25T16:11:56.686Z,101667.90
2023-01-25T16:14:29.314Z,101670.88
2023-01-25T16:16:59.193Z,101676.76
2023-01-25T16:19:27.216Z,101675.52
2023-01-25T16:21:55.370Z,101674.15
2023-01-25T16:24:23.792Z,101676.98
2023-01-25T16:26:52.881Z,101675.45
2023-01-25T16:29:23.126Z,101677.24
2023-01-25T16:31:52.249Z,101679.50
2023-01-25T16:34:21.195Z,101679.39
2023-01-25T16:36:50.808Z,101683.95
2023-01-25T16:39:21.677Z,101683.54
2023-01-25T16:41:49.988Z,101681.05
2023-01-25T16:44:18.115Z,101681.96
2023-01-25T16:46:49.121Z,101683.80
2023-01-25T16:49:26.681Z,101682.02
2023-01-25T16:51:54.910Z,101679.38
2023-01-25T16:54:23.561Z,101681.60
2023-01-25T16:56:52.202Z,101678.94
2023-01-25T16:59:20.914Z,101679.05
2023-01-25T17:01:48.911Z,101673.73
2023-01-25T17:04:17.015Z,101671.70
2023-01-25T17:06:47.031Z,101671.67
2023-01-25T17:09:24.968Z,101675.01
2023-01-25T17:11:54.579Z,101670.39
2023-01-25T17:14:23.008Z,101672.48
2023-01-25T17:16:55.090Z,101670.88
2023-01-25T17:19:23.607Z,101666.07
2023-01-25T17:21:51.973Z,101666.23
2023-01-25T17:24:21.504Z,101667.90
2023-01-25T17:26:50.483Z,101667.32
2023-01-25T17:29:18.377Z,101661.17
2023-01-25T17:31:46.615Z,101660.33
2023-01-25T17:34:16.346Z,101663.67
2023-01-25T17:36:44.722Z,101663.45
2023-01-25T17:39:16.803Z,101668.13
2023-01-25T17:41:45.769Z,101668.31
2023-01-25T17:44:14.640Z,101667.08
2023-01-25T17:46:42.825Z,101662.17
2023-01-25T17:49:11.865Z,101662.55
2023-01-25T17:51:40.800Z,101663.15
2023-01-25T17:54:10.485Z,101662.44
2023-01-25T17:56:39.749Z,101664.88
2023-01-25T17:59:11.817Z,101661.24
2023-01-25T18:01:43.014Z,101659.73
2023-01-25T18:04:13.470Z,101664.93
2023-01-25T18:06:45.388Z,101666.19
2023-01-25T18:09:13.549Z,101660.55
2023-01-25T20:06:48.843Z,101635.14
2023-01-25T20:09:16.795Z,101628.95
2023-01-25T20:11:43.973Z,101632.40
2023-01-25T20:14:11.668Z,101630.11
2023-01-25T20:16:38.282Z,101624.73
2023-01-25T20:19:06.115Z,101624.80
2023-01-25T20:21:33.142Z,101622.86
2023-01-25T20:24:03.141Z,101624.75
2023-01-25T20:26:35.435Z,101628.09
2023-01-25T20:29:02.453Z,101627.31
2023-01-25T20:31:39.504Z,101623.71
2023-01-25T20:34:09.305Z,101622.82
2023-01-25T20:36:36.533Z,101623.27
2023-01-25T20:39:03.590Z,101623.04
2023-01-25T20:41:30.989Z,101621.09
2023-01-25T20:44:06.437Z,101617.42
2023-01-25T20:46:36.582Z,101615.72
2023-01-25T20:49:04.518Z,101614.36
2023-01-25T20:51:31.308Z,101615.13
2023-01-25T20:53:58.063Z,101613.32
2023-01-25T20:56:25.611Z,101612.33
2023-01-25T20:58:52.322Z,101617.02
2023-01-25T21:01:30.370Z,101612.83
2023-01-25T21:03:57.477Z,101609.30
2023-01-25T21:06:25.571Z,101613.70
2023-01-25T21:08:52.457Z,101609.61
2023-01-25T21:11:19.361Z,101608.42
2023-01-25T21:13:46.903Z,101608.60
2023-01-25T21:16:17.176Z,101601.05
2023-01-25T21:19:04.646Z,101599.48
2023-01-25T21:21:31.608Z,101596.81
2023-01-25T21:24:01.710Z,101594.35
2023-01-25T21:26:30.250Z,101597.85
2023-01-25T21:28:57.558Z,101599.74
2023-01-25T21:31:27.498Z,101600.08
2023-01-25T21:33:54.510Z,101600.30
2023-01-25T21:36:21.828Z,101598.77
2023-01-25T21:38:49.372Z,101596.89
2023-01-25T21:41:20.601Z,101596.42
2023-01-25T21:44:06.593Z,101593.65
2023-01-25T21:46:33.425Z,101596.07
2023-01-25T21:49:20.449Z,101593.20
2023-01-25T21:51:49.123Z,101593.23
2023-01-25T21:54:22.130Z,101587.13
2023-01-25T21:56:50.487Z,101587.35
2023-01-25T21:59:17.477Z,101585.52
2023-01-25T22:01:44.422Z,101583.98
2023-01-25T22:04:11.704Z,101579.02
2023-01-25T22:06:41.978Z,101577.95
2023-01-25T22:09:08.899Z,101574.94
2023-01-25T22:11:35.850Z,101576.41
2023-01-25T22:14:02.660Z,101571.43
2023-01-25T22:16:29.751Z,101563.89
2023-01-25T22:49:14.661Z,101552.30
2023-01-25T22:51:42.783Z,101547.14
2023-01-25T22:54:10.767Z,101550.29
2023-01-25T22:56:38.891Z,101548.54
2023-01-25T22:59:08.074Z,101543.27
2023-01-25T23:01:36.149Z,101539.91
2023-01-25T23:04:04.161Z,101539.29
2023-01-25T23:06:34.363Z,101535.16
2023-01-25T23:09:05.138Z,101534.87
2023-01-25T23:11:38.053Z,101532.95
2023-01-25T23:14:26.287Z,101526.66
2023-01-25T23:17:15.016Z,101522.56
2023-01-25T23:19:43.272Z,101525.34
2023-01-25T23:22:11.232Z,101523.62
2023-01-25T23:24:39.482Z,101525.09
2023-01-25T23:27:07.549Z,101520.88
2023-01-25T23:29:35.629Z,101520.30
2023-01-25T23:32:04.001Z,101520.29
2023-01-25T23:34:35.751Z,101514.17
2023-01-25T23:37:03.718Z,101513.95
2023-01-25T23:39:32.671Z,101512.16
2023-01-25T23:42:00.661Z,101510.56
2023-01-25T23:44:29.265Z,101503.73
2023-01-25T23:46:57.275Z,101503.70
2023-01-25T23:49:25.620Z,101499.95
2023-01-25T23:51:53.634Z,101498.91
2023-01-25T23:54:21.652Z,101497.90
2023-01-25T23:56:49.820Z,101494.15
2023-01-25T23:59:17.913Z,101491.91
